Aérodrome :
LOGIN :

S'inscrire | Disclaimer

   EN    FR    IT 

 










Légende :    VFR   VFR Marginal   IFR   IFR Intensif   IFR Très Intensif
Visi : 
Plafond : 
>= 8 km
>= 3000ft
5 à 8 km
1000 à 3000 ft
1500m à 5 km
500 à 1000 ft
800 à 1500m
200 à 500 ft
< 800m
< 200 ft
Symboles :   Orages  Brouillard  Fortes neiges  Fortes précipitations  Vent > 20 kt
SIGMETs :   Divers  Orages  Givrage  Turbulence  Onde Orograph.  Cendres Volcan.







- Altitude de l'aérodrome : 106 ft
- Code IATA : XDA
- Voir les cartes d'approche


LFBY - Dax Seyresse

DERNIER METAR :
  • 251100Z 25006KT 220V300 9000 SCT015 SCT030TCU 20/16 Q1021

METARs EXPIRÉS :
  • 251000Z 22008KT 190V250 9999 FEW013 SCT026TCU 20/17 Q1021
  • 250900Z 20005KT 180V240 8000 FEW023 FEW033TCU SCT053 18/17 Q1021

TAF TAF LFBY
Valide du 25 à 09h jusqu'au 25 à 18h UTC


250800Z 2509/2518 25005KT 9000 SCT020 BKN050
BECMG 2509/2511 5000 SHRA FEW015 BKN025TCU
BECMG 2512/2514 31010KT 9999 BKN040
Pas de NOTAMs connus pour ce terrain.
1 SIGMET publié pour la FIR Bordeaux (LFBB) :
 
Orages noyés dans la masse
LFBB SIGMET 6 VALID 251030/251130 LFPW
LFBB BORDEAUX FIR/UIR EMBD TS OBS WI N4230 E00130 - N4230 E00045 - N4345 E00145 - N4330 E00230 TOP FL340 MOV NE 20KT NC=



MET'MAP, la Météo Aéronautique d'un coup d'oeil ! - Copyright ORBIFLY Décembre 2007 - Disclaimer

ORBIFLY MET'MAP TEAM :

Programmation & Développement : Alexandra Zaïnal
Conception & Développement : Baudouin d'Aumeries
Co-Programmation & Développement : Marc-Olivier Méhu
Soutien technique & logistique : Manuel Goepfert

Contact : metmap@orbifly.com




SOURCES & CREDITS :

   NOAA